Terminal Aerodrome Forecast
Issued by NWS Kansas City/Pleasant Hill, MO

Home | Current Version | Previous Version | Text Only | Print | Product List | Glossary On
Versions: 1 2 3 4 5 6 7 8 9 10 11 12 13
000
FTUS43 KEAX 241738
TAFMCI
TAF
KMCI 241738Z 2418/2518 18024G30KT P6SM FEW100
     FM250100 17011KT P6SM FEW200
     FM251400 17012G22KT P6SM SCT040 BKN100=

USA.gov is the U.S. government's official web portal to all federal, state and local government web resources and services.